KBFL/BFL METAR and TAF weather

Enter ICAO airport designator
Station Type Date Time Source
KBFL METAR 2018/07/21 10:54 UTC NOAA

KBFL 211054Z AUTO 32005KT 10SM FEW120 27/13 A2991 RMK AO2 SLP119 T02670133


Station Type Date Time Source
KBFL Decoded METAR 2018/07/21 10:54 UTC NOAA

BAKERSFIELD MEADOWS FIELD, CA, United States (KBFL) 35-26N 119-03W 151M
Jul 21, 2018 - 06:54 AM EDT / 2018.07.21 1054 UTC
Wind: from the NW (320 degrees) at 6 MPH (5 KT):0
Visibility: 10 mile(s):0
Sky conditions: mostly clear
Temperature: 80.1 F (26.7 C)
Dew Point: 55.9 F (13.3 C)
Relative Humidity: 43%
Pressure (altimeter): 29.91 in. Hg (1012 hPa)
ob: KBFL 211054Z AUTO 32005KT 10SM FEW120 27/13 A2991 RMK AO2 SLP119 T02670133
cycle: 11

Station Type Date Time Source
KBFL TAF 2018/07/21 12:22 UTC NOAA

TAF KBFL 211120Z 2112/2212 VRB05KT P6SM SCT250
FM211900 30010G15KT P6SM BKN250
FM220600 35006KT P6SM SCT250


Example: see airport list